CLASSIFICA

VERONA FORCE RUN

Verona

(17/06/2018)

DIVISIONI:
HARD     ROCK     CLASSIFICA:   ASSOLUTA    M     F    
CATEGORIE:   TUTTE    |   18-24(F)   |   18-24(M)   |   25-29(F)   |   25-29(M)   |   30-34(F)   |   30-34(M)   |   35-39(F)   |   35-39(M)   |   40-44(F)   |   40-44(M)   |   45-49(F)   |   45-49(M)   |   50-99(F)   |   50-99(M)  
ALTRO: Classifica Team 
FILTRO:
  Atleta      Team        Pulisci       Atleti classificati HARD: 163  

Cliccare sulle colonne per cambiare ordinamento Pagina:   | 1 | | 2 | | 3 | | 4 |
Azioni Pos. M/F Cat. P.Cat. Pett Naz Atleta Squadra Tempo Braccialetti Regione
1125-29(M)1221COLOMBO STEFANOHEROES00:59:31 3 -
2230-34(M)1235DALESSANDRO MARCOINFERNOTEAM00:59:42 3 -
3330-34(M)2241DEPEDRI RAFFAELEVERONA FORCE RUN ARMY01:01:10 3 R
4430-34(M)3246MACCHIAVELLO CLAUDIOINFERNOTEAM01:01:44 3 -
5525-29(M)2266DEL PIANO ANDREAINFERNOTEAM01:02:47 3 -
6630-34(M)4276CATELLANI MIRCOWHITE DONKEYS01:04:03 3 -
7730-34(M)5263BERTOLASI MARCOWHITE DONKEYS01:04:43 3 -
8825-29(M)3272MAFFEI GIACOMOTEAM KNIGHT RACE01:05:12 3 -
9925-29(M)4184MORGANTE GIUSEPPEFARMRUN01:05:22 3 -
101025-29(M)5261KADIJA RIGERSINFERNOTEAM01:05:33 3 -
111135-39(M)1185GORASSO MASSIMOLIBERO01:06:09 3 -
121218-24(M)1253MORI RICCARDOINFERNOTEAM01:06:29 3 -
131335-39(M)2280BONAITA ALEXTEAM VIBRAM01:06:46 3 -
141425-29(M)6237BRONDI MARCOVERONA FORCE RUN ARMY01:07:47 3 R
151530-34(M)6264BELLODI ANDREAWHITE DONKEYS01:09:07 3 -
161630-34(M)7201VILLANI MARCOLIBERO01:10:21 3 -
171730-34(M)8282PESCE FEDERICOLIBERO01:10:29 3 -
181818-24(M)2210BIONDAN MARCOLIBERO01:10:35 3 R
191925-29(M)7262CAVICCHIOLO LUCA GIUSEPPEANIMALS OCR TEAM01:10:57 3 -
202030-34(M)9195TREVISAN MASSIMOLIBERO01:11:02 3 R
212118-24(M)3103ZANONI FEDERICOLIBERO01:11:38 3 -
222245-49(M)1226CINI ROLANDOWELLFIT RUN MUDDERS01:12:04 3 -
232325-29(M)8200DEAVI STEFANOLIBERO01:12:12 3 R
242435-39(M)3232BONFANTI ANDREALIBERO01:12:33 3 -
252525-29(M)9165BATTAGLIA DINOFARMRUN01:13:00 3 -
262625-29(M)10157DIDOMENICO SIMONELIBERO01:13:23 3 -
272730-34(M)10101GIACONE MASSIMOTEAM WRI01:14:00 3 -
282840-44(M)1189TINI EMANUELELIBERO01:14:03 3 -
292935-39(M)4249BONESI SAMUELWHITE DONKEYS01:14:42 3 -
303035-39(M)5239SPERANDIO MATTEOVERONA FORCE RUN ARMY01:14:57 3 R
313125-29(M)11130AGUZZI DAVIDELIBERO01:15:06 3 -
323230-34(M)11132LOPES MASSIMOOCR TEAM ITALY LWT01:15:15 3 -
333335-39(M)6125D'ORAZIO ERMANNOTEAM MAXIMUS01:15:28 3 -
343430-34(M)12254BARALDI DAVIDEWHITE DONKEYS01:15:36 3 -
353545-49(M)2279PILOTTA ALESSANDROCELTICTEAM01:16:06 3 -
363645-49(M)3234GIUSTIZIA ANGELOLIBERO01:16:18 3 -
373730-34(M)13283GUERNIERI VALERIOWHITE DONKEYS01:17:38 3 -
383845-49(M)4159PACHER THOMASLIBERO01:17:56 3 -
393945-49(M)5158PAPALINI FABIOLIBERO01:18:42 3 -
404040-44(M)2150CAPUCCI ERIKLIBERO01:18:45 3 -
414135-39(M)7258POLO DAMIANOLIBERO01:19:15 3 -
424245-49(M)6285MARINI ALESSANDROANIMALS OCR TEAM01:19:57 3 R
434330-34(M)14230MOLGORA GABRIELELIBERO01:20:03 3 -
444435-39(M)8227TIBERI ANTONIOLIBERO01:20:07 3 -
454535-39(M)9127FRATARCANGELI MASSIMOTEAM MAXIMUS01:20:44 3 -
464640-44(M)3231MASALA ENRICOANIMALS OCR TEAM01:20:59 3 -
474730-34(M)15260RENZETTI BERNARDOLIBERO01:21:13 3 -
484835-39(M)10229DE PRA JACOPOANIMALS OCR TEAM01:22:34 3 -
494930-34(M)16187ZAPPA STEFANOWHITE DONKEYS01:22:53 3 -
505045-49(M)7198RAVIZZA MARCOLIBERO01:23:03 3 -
515145-49(M)8290CECCOTTI DANIELE.ATLETA INDIVIDUALE01:23:27 3 -
525225-29(M)12257BIAGINI CRISTIANLIBERO01:23:41 3 -
535340-44(M)4149ROSSI ROBERTOROMAGNA WILD RACE01:24:19 3 -
545430-34(M)17169FERRETTI ROBERTOLIBERO01:25:04 3 -
555530-34(M)18155ROVESTI MICHAELWHITE DONKEYS01:26:22 3 -
565625-29(M)13259PALVARINI ANDREAANIMALS OCR TEAM01:26:40 3 -
575725-29(M)14240MARTIGNONI MARCOVERONA FORCE RUN ARMY01:26:58 3 R
585830-34(M)19206ZANONI MATTEOWHITE DONKEYS01:28:03 3 -
595930-34(M)20162CIVA LORENZOWHITE DONKEYS01:30:14 3 -
606035-39(M)11174MARINONI CHRISTIANLIBERO01:30:42 3 -
616150-99(M)1207MARABINI ROBERTOCUS INSUMBRIA EOLO01:31:23 3 -
62135-39(F)1277BATTIATI ADELETEAM MAXIMUS01:32:29 3 -
63218-24(F)1251ZENGA CAROLINFERNOTEAM01:32:49 3 -
64330-34(F)1223BARDELLINI PAOLAINFERNOTEAM01:33:28 3 -
65440-44(F)1213PERSICO PAOLANEVER GIVE UP01:33:33 3 -
666250-99(M)2108RAINERO ALESSANDROXXXX01:35:00 3 R
67518-24(F)2233TANGEL ALLEGRALIBERO01:35:30 3 -
686325-29(M)15288CAVALLARI FABIOLIBERO01:36:05 3 -
696425-29(M)16217BERTABONI GIULIOLIBERO01:36:34 3 -
706518-24(M)4292AMONTI FILIPPOANIMALS OCR TEAM01:37:16 3 -
716640-44(M)5215ZUCCHINALI ALESNEVER GIVE UP01:38:33 3 -
72635-39(F)2179BELLOMI LAURAANIMALS OCR TEAM01:38:50 3 R
736750-99(M)3183QUADRACCIA ALESSANDROLIBERO01:39:24 3 -
746818-24(M)5121TOGNOLO GIACOMOLIBERO01:39:41 3 R
756940-44(M)6255SCHIRRU VITTORIOLIBERO01:40:20 3 -
767040-44(M)7136ROSSI GIUSEPPELIBERO01:40:27 3 -
77725-29(F)1168PELLOJA VITTORIAWHITE DONKEYS01:42:26 3 -
78825-29(F)2120MOTTA ALESSANDRALIBERO01:43:51 3 -
797135-39(M)12160GHINZELLI DARIOWHITE DONKEYS01:43:54 3 -
807225-29(M)17190CASTAGNA DANIELLIBERO01:44:54 3 R
817340-44(M)8284SCIRISCIOLI NICOLALIBERO01:45:06 3 -
82925-29(F)3199BARTOLI SARANINJA CAVE01:45:38 3 -
837430-34(M)21236LORENZETTO ALBERTOVERONA FORCE RUN ARMY01:45:40 3 -
847530-34(M)22135QUARANTINI ANDREALIBERO01:45:46 3 -
857618-24(M)6176BONESI CRISTIANWHITE DONKEYS01:46:17 3 -
867740-44(M)9212CASCHILI MARCOIMSA01:46:33 3 -
877825-29(M)18167MOSCATELLI MICHELEFARMRUN01:47:25 3 -
881030-34(F)2267LOVATO DANIELAWHITE DONKEYS01:49:04 3 -
897950-99(M)4205COLOMBO ROBERTOLIBERO01:51:38 3 -
908040-44(M)10243VIERO PATRIZIOVERONA FORCE RUN ARMY01:52:03 3 R
918130-34(M)23177BONESI DAVIDEWHITE DONKEYS01:53:00 3 -
928245-49(M)9209ARCIERI VITOLIBERO01:53:33 3 -
938345-49(M)10140CANESTRARI GIAN LUCALIBERO01:54:58 3 -
948430-34(M)24204RONCHI LEANDROLIBERO01:57:06 3 -
951140-44(F)2166DOMINICI BARBARAFARMRUN02:01:21 3 -
961240-44(F)3287PERRONE IDAWHITE DONKEYS02:02:57 3 -
971330-34(F)3291ROGNIN TATIANAANIMALS OCR TEAM02:07:57 3 -
988540-44(M)11123ZUMERLE MARCOLIBERO02:20:16 3 R
998640-44(M)12152TURA SIMONEROMAGNA WILD RACE02:31:07 3 -
1008740-44(M)13141PERAZZINI CRISTIANLIBERO02:31:07 3 -
1018825-29(M)19116CICCONE MASSIMOLIBERO02:31:52 3 -
1028925-29(M)20270FORNASIER FRANCESCOLA BESTIA02:37:23 3 R
1039025-29(M)21220CHIARINI FABIOLIBERO01:10:11 2 -
1049130-34(M)25126COPPA FRANCESCOTEAM MAXIMUS01:18:57 2 -
1059235-39(M)13170DE SIMONE FILIPPOLIBERO01:24:14 2 -
1069325-29(M)22128STEFANI MATTIALIBERO01:25:51 2 R
1079430-34(M)26102RUSCONI ANDREAWHITE DONKEYS01:26:13 2 -
1089530-34(M)27193MASELLI LUCALIBERO01:26:23 2 -
1099630-34(M)28197ZARANTONELLO FRANCO FRANCESCOLIBERO01:27:37 2 R
1109740-44(M)14192GRITTI CURZIONEVER GIVE UP01:27:55 2 -
1119835-39(M)14268CIARDELLI DARIOLIBERO01:32:14 2 -
1121418-24(F)3202MAZZUCCO ELISABETTALIBERO01:37:10 2 -
1139950-99(M)5247LIGORIO LUIGIANIMALS OCR TEAM01:38:23 2 -
11410025-29(M)23129SALBEGO CHRISTIANLIBERO01:39:47 2 R
11510145-49(M)11250GEMELLI ALESSANDROHEROES01:44:13 2 -
11610235-39(M)15203DE MARCHI ALESSANDROLIBERO01:44:14 2 R
11710330-34(M)29216BOFFINI SIMONENEVER GIVE UP01:47:11 2 -
1181518-24(F)4180BORTOLOTTI MICHELALIBERO01:49:29 2 -
11910430-34(M)30222CATELLANI ANDREALIBERO01:50:07 2 -
12010545-49(M)12131CASTEGNARO ANDREAQUELLI DELLE 701:51:00 2 -
1211640-44(F)4134CRAWFORD MARISA ALONZALIBERO01:59:33 2 R
1221718-24(F)5188COLABIANCHI ELENATEAM MAXIMUS02:01:24 2 -
12310618-24(M)7175SACCANI DAVIDELIBERO02:04:09 2 -
1241850-99(F)1286NATALI MONICALIBERO02:09:12 2 -
1251930-34(F)4196BUA ELEONORANEVER GIVE UP02:37:54 2 -
12610730-34(M)31119ERCOLI ANDREALIBERO01:12:35 1 -
12710835-39(M)16281UBER MICHELELIBERO01:16:23 1 R
12810930-34(M)32105BERALDO DAVIDLIBERO01:29:35 1 R
1292035-39(F)3244CECCATO ELISALIBERO01:35:00 1 -
13011030-34(M)33109BRUSAROSCO NICOLAXXXX01:36:46 1 R
13111118-24(M)8137CARNIELETTO SIMONELIBERO01:37:22 1 R
13211225-29(M)24218BISCARO ROLANDOLIBERO01:38:40 1 R
13311330-34(M)34186BRUNI ANDREALIBERO01:48:15 1 -
13411440-44(M)15173BURATO NICOLALIBERO01:48:21 1 R
13511535-39(M)17143FERRI ALESSANDROLIBERO01:49:00 1 -
13611625-29(M)25219CIACCIARELLI FRANCESCOLIBERO01:51:32 1 R
13711730-34(M)35114PAROLA GIANFRANCOLIBERO01:54:49 1 R
1382145-49(F)1107TEDESCHI ELISAXXXX02:10:18 1 R
1392225-29(F)4242DEGASPERI SARAVERONA FORCE RUN ARMY02:14:14 1 R
1402335-39(F)4139ABBALLE EMILIANATEAM MAXIMUS02:16:42 1 -
1412435-39(F)5154GENIO ANNALIBERO02:27:51 1 -
1422530-34(F)5214BOFFELLI MICHELANEVER GIVE UP02:37:37 1 -
1432625-29(F)5274CURTI GIULIALIBERO02:40:50 1 R
14411830-34(M)36265INVERNIZZI STEFANOSPORT PIU CORNO01:04:40 0 -
14511935-39(M)18122SARTORI ROBERTOLIBERO01:23:54 0 R
14612035-39(M)19144BRUSAROSCO FABIOXXXX01:37:33 0 R
14712135-39(M)20211FREDDI MATTEOLIBERO01:39:57 0 -
14812245-49(M)13145MARIANI LEONARDOLIBERO01:52:22 0 -
14912335-39(M)21256ANDREOTTI GIACOMOLIBERO01:52:58 0 -
1502725-29(F)6208BALISCIANO MORETTI ILARIALIBERO01:58:03 0 R
15112435-39(M)22245MIRANDOLA MARCOLIBERO02:00:32 0 -
15212545-49(M)14225CAPONERI GIANLEONARDOLIBERO02:09:43 0 -
1532845-49(F)2112BONETTI STEFANIALIBERO02:14:10 0 R
1542950-99(F)2113ROCCUZZO GIUSYLIBERO02:14:20 0 R
1553030-34(F)6104SPAZZINI CHIARALIBERO02:15:25 0 -
15612630-34(M)37289SOZZI GIANPIETROATLETA INDIVIDUALE02:15:54 0 -
15712750-99(M)6248GIOVANNINI PAOLOANIMALS OCR TEAM02:18:58 0 -
1583135-39(F)6182SCACCABAROZZI SARALIBERO02:27:58 0 R
15912840-44(M)16147GAMBERINI LUCALIBERO02:31:07 0 -
16012930-34(M)38269GHELLER LORISLA BESTIA02:37:25 0 R
16113030-34(M)39271CORRADINI ALBERTOLA BESTIA02:37:26 0 R
16213135-39(M)23278FABBRI MARCELLOLIBERO02:38:51 0 -
16313240-44(M)17181SARTORATO MAUROLIBERO02:38:58 0 R
Righe per pagina::     TUTTE    |   30   |   50   |   100   Pagina:   | 1 | | 2 | | 3 | | 4 |